Time;durP1;ratioP1;P1;durP2;ratioP2;P2;SDS_P1;SDS_P2;PMS_P1;PMS_P2;Temp;Humidity;BMP_temperature;BMP_pressure;BME280_temperature;BME280_humidity;BME280_pressure;Samples;Min_cycle;Max_cycle;Signal;HPM_P1;HPM_P2
2023/06/06 00:00:06;;;;;;;5.30;3.03;;;;;;;17.44;46.09;101168.09;5018268;28;20211;-69
2023/06/06 00:02:41;;;;;;;2.60;2.40;;;;;;;17.41;46.83;101165.38;5015929;28;20225;-70
2023/06/06 00:05:11;;;;;;;3.90;2.93;;;;;;;17.40;47.40;101159.28;5015858;28;20615;-69
2023/06/06 00:07:39;;;;;;;4.13;2.67;;;;;;;17.37;47.32;101161.84;5018993;28;20224;-69
2023/06/06 00:10:08;;;;;;;5.73;2.97;;;;;;;17.35;47.93;101175.56;5017708;28;20717;-69
2023/06/06 00:12:34;;;;;;;3.00;2.70;;;;;;;17.33;48.22;101164.44;5015827;28;20778;-69
2023/06/06 00:15:01;;;;;;;3.10;2.60;;;;;;;17.32;47.92;101168.25;5018396;28;20207;-69
2023/06/06 00:17:28;;;;;;;3.53;3.10;;;;;;;17.29;48.65;101170.88;5016016;28;20204;-69
2023/06/06 00:19:54;;;;;;;4.13;3.20;;;;;;;17.27;48.59;101157.09;5017029;28;20600;-69
2023/06/06 00:22:23;;;;;;;3.93;3.07;;;;;;;17.25;48.90;101151.34;5014832;28;20230;-69
2023/06/06 00:24:49;;;;;;;4.37;2.70;;;;;;;17.22;48.80;101166.16;5019305;28;20201;-69
2023/06/06 00:27:16;;;;;;;3.27;2.57;;;;;;;17.21;48.88;101159.28;5018993;28;20230;-69
2023/06/06 00:29:43;;;;;;;3.90;2.87;;;;;;;17.19;49.22;101156.19;5018879;28;20266;-69
2023/06/06 00:32:09;;;;;;;6.20;3.37;;;;;;;17.18;49.45;101159.25;5015894;28;20237;-69
2023/06/06 00:34:36;;;;;;;4.37;2.93;;;;;;;17.14;51.07;101161.06;5014606;28;20216;-69
2023/06/06 00:37:03;;;;;;;4.67;2.83;;;;;;;17.10;50.01;101165.56;5029967;28;21129;-69
2023/06/06 00:39:31;;;;;;;4.67;3.37;;;;;;;17.07;50.81;101164.38;5017189;28;20225;-69
2023/06/06 00:41:57;;;;;;;7.83;3.30;;;;;;;17.04;50.86;101161.66;5015615;28;20202;-69
2023/06/06 00:44:24;;;;;;;4.60;3.30;;;;;;;17.01;50.36;101152.44;5012527;28;20212;-69
2023/06/06 00:46:50;;;;;;;6.67;3.60;;;;;;;17.00;50.54;101163.47;5026736;28;20222;-69
2023/06/06 00:49:18;;;;;;;5.23;3.77;;;;;;;16.97;50.48;101150.84;5016870;28;20258;-69
2023/06/06 00:51:46;;;;;;;3.60;3.10;;;;;;;16.96;51.33;101155.41;5033502;28;20203;-68
2023/06/06 00:54:14;;;;;;;3.30;3.00;;;;;;;16.93;52.51;101158.78;5014974;28;20217;-70
2023/06/06 00:56:44;;;;;;;4.57;3.37;;;;;;;16.90;51.90;101154.16;5015989;28;20212;-69
2023/06/06 00:59:12;;;;;;;4.07;3.67;;;;;;;16.88;52.73;101160.97;5014666;28;20229;-69
2023/06/06 01:01:39;;;;;;;5.03;3.20;;;;;;;16.85;52.52;101153.66;5015244;28;20197;-70
2023/06/06 01:04:08;;;;;;;5.60;3.33;;;;;;;16.81;52.91;101163.50;5017947;28;20278;-69
2023/06/06 01:06:37;;;;;;;6.90;3.87;;;;;;;16.79;53.22;101161.19;5018986;28;20538;-69
2023/06/06 01:09:04;;;;;;;6.90;3.57;;;;;;;16.77;53.17;101165.34;5014080;28;20283;-69
2023/06/06 01:11:41;;;;;;;5.47;3.67;;;;;;;16.72;54.39;101163.72;5016772;28;20242;-69
2023/06/06 01:14:18;;;;;;;5.23;3.60;;;;;;;16.69;55.77;101158.31;5016676;28;20201;-69
2023/06/06 01:16:52;;;;;;;6.27;3.33;;;;;;;16.65;54.28;101157.47;5018984;28;20197;-69
2023/06/06 01:19:20;;;;;;;7.40;3.87;;;;;;;16.63;55.44;101159.72;5018611;28;20205;-68
2023/06/06 01:21:51;;;;;;;7.77;4.20;;;;;;;16.60;56.55;101157.75;5016860;28;20215;-68
2023/06/06 01:24:19;;;;;;;6.43;4.20;;;;;;;16.56;55.17;101165.69;5016472;28;20774;-69
2023/06/06 01:26:46;;;;;;;4.23;3.60;;;;;;;16.55;54.78;101160.72;5016308;28;20235;-68
2023/06/06 01:29:12;;;;;;;5.73;4.10;;;;;;;16.55;55.89;101150.06;5014589;28;20818;-68
2023/06/06 01:31:43;;;;;;;5.00;4.30;;;;;;;16.51;55.44;101149.97;5013097;28;20200;-68
2023/06/06 01:34:16;;;;;;;7.53;4.13;;;;;;;16.49;54.23;101152.22;5014156;28;20634;-68
2023/06/06 01:36:49;;;;;;;7.20;3.83;;;;;;;16.48;55.38;101153.34;5015503;28;20196;-68
2023/06/06 01:39:19;;;;;;;7.47;4.33;;;;;;;16.46;55.67;101150.25;5016246;28;20294;-68
2023/06/06 01:41:51;;;;;;;6.07;4.10;;;;;;;16.45;55.78;101159.38;5015650;28;20204;-68
2023/06/06 01:44:19;;;;;;;7.10;3.77;;;;;;;16.44;54.40;101157.81;5015462;28;20206;-68
2023/06/06 01:46:46;;;;;;;4.47;3.60;;;;;;;16.44;55.08;101159.72;5014604;28;20275;-68
2023/06/06 01:49:13;;;;;;;4.27;3.87;;;;;;;16.45;55.09;101169.28;5014758;28;20219;-68
2023/06/06 01:51:40;;;;;;;5.37;3.90;;;;;;;16.45;55.81;101166.59;5013862;28;20213;-68
2023/06/06 01:54:07;;;;;;;5.67;3.70;;;;;;;16.44;55.95;101165.81;5014700;28;20204;-68
2023/06/06 01:56:34;;;;;;;4.57;4.07;;;;;;;16.45;55.94;101166.59;5010787;28;20216;-69
2023/06/06 01:59:00;;;;;;;6.47;4.07;;;;;;;16.43;55.17;101169.63;5014666;28;20558;-68
2023/06/06 02:01:28;;;;;;;9.40;4.40;;;;;;;16.43;55.17;101161.63;5013407;28;20626;-68
2023/06/06 02:03:55;;;;;;;5.73;4.27;;;;;;;16.32;55.47;101162.47;5013170;28;20247;-68
2023/06/06 02:06:22;;;;;;;5.63;3.83;;;;;;;16.41;55.34;101163.84;5015275;28;20538;-68
2023/06/06 02:08:49;;;;;;;6.27;4.07;;;;;;;16.45;55.68;101163.94;5015135;28;20201;-69
2023/06/06 02:11:16;;;;;;;6.20;3.90;;;;;;;16.46;54.97;101168.91;5012315;28;20926;-69
2023/06/06 02:13:43;;;;;;;6.37;4.67;;;;;;;16.46;54.94;101168.91;5013621;28;20231;-68
2023/06/06 02:16:09;;;;;;;6.67;3.57;;;;;;;16.47;55.47;101170.47;5011389;28;20204;-68
2023/06/06 02:18:36;;;;;;;4.13;3.57;;;;;;;16.48;56.20;101165.88;5014137;28;20208;-68
2023/06/06 02:21:02;;;;;;;7.70;4.17;;;;;;;16.48;56.49;101168.56;5012917;28;20224;-68
2023/06/06 02:23:29;;;;;;;4.50;4.10;;;;;;;16.48;57.08;101171.22;5012931;28;20702;-68
2023/06/06 02:25:55;;;;;;;5.17;3.63;;;;;;;16.48;57.21;101176.56;5014615;28;20293;-68
2023/06/06 02:28:23;;;;;;;6.70;4.53;;;;;;;16.46;56.54;101171.56;5014310;28;20230;-68
2023/06/06 02:30:50;;;;;;;6.97;4.20;;;;;;;16.46;56.31;101168.91;5027562;28;20208;-68
2023/06/06 02:33:17;;;;;;;4.10;3.70;;;;;;;16.45;56.76;101177.28;5014011;28;20229;-68
2023/06/06 02:35:43;;;;;;;7.17;4.03;;;;;;;16.44;57.26;101170.38;5014802;28;20207;-68
2023/06/06 02:38:12;;;;;;;7.10;4.23;;;;;;;16.43;57.29;101166.16;5011889;28;20200;-68
2023/06/06 02:40:38;;;;;;;5.60;4.10;;;;;;;16.43;57.30;101166.16;5013981;28;20641;-68
2023/06/06 02:43:04;;;;;;;5.33;4.27;;;;;;;16.41;57.64;101161.19;5011383;28;20231;-68
2023/06/06 02:45:32;;;;;;;4.70;4.17;;;;;;;16.41;57.48;101165.75;5013793;28;20198;-68
2023/06/06 02:47:58;;;;;;;5.93;4.10;;;;;;;16.41;57.02;101166.50;5013035;28;20205;-69
2023/06/06 02:50:28;;;;;;;5.93;4.13;;;;;;;16.42;57.46;101169.97;5014369;28;20216;-68
2023/06/06 02:52:55;;;;;;;6.30;4.57;;;;;;;16.41;57.60;101168.41;5012671;28;20286;-68
2023/06/06 02:55:21;;;;;;;5.47;3.87;;;;;;;16.40;57.43;101178.31;5012357;28;20266;-69
2023/06/06 02:57:51;;;;;;;5.03;4.40;;;;;;;16.40;57.20;101188.22;5027589;28;20200;-68
2023/06/06 03:00:18;;;;;;;8.27;4.10;;;;;;;16.40;57.14;101186.28;5012062;28;20597;-68
2023/06/06 03:02:46;;;;;;;5.13;4.47;;;;;;;16.40;57.78;101186.28;5013006;28;20229;-68
2023/06/06 03:05:13;;;;;;;8.07;4.73;;;;;;;16.42;58.30;101189.41;5012152;28;20209;-68
2023/06/06 03:07:40;;;;;;;4.97;4.33;;;;;;;16.43;58.22;101188.28;5011245;28;20236;-68
2023/06/06 03:10:08;;;;;;;7.90;4.90;;;;;;;16.44;58.31;101186.38;5012374;28;20217;-68
2023/06/06 03:12:40;;;;;;;6.47;4.90;;;;;;;16.44;55.61;101195.16;5010931;28;20230;-68
2023/06/06 03:15:08;;;;;;;7.80;4.70;;;;;;;16.46;57.84;101195.56;5010130;28;20244;-68
2023/06/06 03:17:40;;;;;;;6.57;4.93;;;;;;;16.48;58.46;101192.56;5013180;28;20204;-68
2023/06/06 03:20:09;;;;;;;6.23;4.60;;;;;;;16.48;58.52;101193.34;5011607;28;20636;-68
2023/06/06 03:22:38;;;;;;;5.60;5.00;;;;;;;16.51;58.72;101184.63;5011099;28;20305;-68
2023/06/06 03:25:05;;;;;;;6.50;4.77;;;;;;;16.54;59.76;101193.81;5011463;28;20208;-68
2023/06/06 03:27:31;;;;;;;6.00;4.67;;;;;;;16.43;61.50;101184.81;5014526;28;20822;-68
2023/06/06 03:29:58;;;;;;;5.27;4.53;;;;;;;16.49;59.93;101186.09;5012209;28;20201;-68
2023/06/06 03:32:29;;;;;;;6.23;5.10;;;;;;;16.55;59.36;101179.38;5012347;28;20232;-68
2023/06/06 03:34:55;;;;;;;5.83;4.90;;;;;;;16.58;59.49;101182.13;5013002;28;20197;-68
2023/06/06 03:37:23;;;;;;;6.50;4.43;;;;;;;16.60;60.74;101190.53;5010634;28;20192;-68
2023/06/06 03:39:50;;;;;;;9.10;5.23;;;;;;;16.63;61.62;101189.84;5010960;28;20216;-69
2023/06/06 03:42:16;;;;;;;5.83;4.80;;;;;;;16.66;61.49;101188.38;5009722;28;20232;-69
2023/06/06 03:44:44;;;;;;;7.37;5.00;;;;;;;16.69;61.40;101198.31;5012088;28;20266;-68
2023/06/06 03:47:10;;;;;;;5.90;5.03;;;;;;;16.71;62.48;101198.75;5010981;28;20243;-68
2023/06/06 03:49:37;;;;;;;6.63;4.80;;;;;;;16.72;61.34;101194.97;5012296;28;20677;-68
2023/06/06 03:52:04;;;;;;;7.83;4.90;;;;;;;16.75;61.78;101195.03;5014201;28;20842;-68
2023/06/06 03:54:36;;;;;;;6.67;5.30;;;;;;;16.77;62.02;101192.75;5010569;28;20214;-68
2023/06/06 03:57:03;;;;;;;6.70;4.90;;;;;;;16.79;62.20;101192.41;5009677;28;20251;-68
2023/06/06 03:59:29;;;;;;;7.53;5.10;;;;;;;16.80;62.15;101193.97;5013152;28;20208;-68
2023/06/06 04:01:55;;;;;;;6.10;4.97;;;;;;;16.82;62.33;101194.41;5009935;28;20210;-68
2023/06/06 04:04:26;;;;;;;6.57;4.57;;;;;;;16.85;62.75;101189.13;5009766;28;20820;-68
2023/06/06 04:06:53;;;;;;;7.90;4.60;;;;;;;16.87;63.85;101202.13;5011419;28;20208;-68
2023/06/06 04:09:19;;;;;;;6.33;4.83;;;;;;;16.89;62.28;101191.84;5010553;28;20215;-68
2023/06/06 04:11:47;;;;;;;8.53;4.90;;;;;;;16.91;62.19;101194.94;5009953;28;20210;-68
2023/06/06 04:14:14;;;;;;;7.30;4.87;;;;;;;16.93;61.57;101204.13;5009473;28;20744;-69
2023/06/06 04:16:41;;;;;;;7.60;5.30;;;;;;;16.96;61.85;101206.09;5009914;28;20206;-68
2023/06/06 04:19:07;;;;;;;5.83;4.73;;;;;;;17.00;61.72;101211.50;5010500;28;20196;-67
2023/06/06 04:21:34;;;;;;;5.07;4.57;;;;;;;17.03;61.82;101200.13;5009613;28;20218;-69
2023/06/06 04:24:00;;;;;;;8.50;5.23;;;;;;;17.06;61.57;101210.88;5010760;28;20221;-68
2023/06/06 04:26:31;;;;;;;7.93;5.37;;;;;;;17.11;63.08;101213.25;5023666;28;20807;-68
2023/06/06 04:28:59;;;;;;;7.40;5.03;;;;;;;17.08;62.85;101211.28;5009358;28;20224;-68
2023/06/06 04:31:26;;;;;;;6.07;5.00;;;;;;;17.03;62.61;101210.81;5008724;28;20333;-68
2023/06/06 04:33:54;;;;;;;6.93;4.90;;;;;;;17.04;63.71;101215.78;5011206;28;20299;-69
2023/06/06 04:36:22;;;;;;;7.87;5.47;;;;;;;17.08;63.45;101211.28;5010151;28;20204;-68
2023/06/06 04:38:49;;;;;;;6.10;5.30;;;;;;;17.12;63.59;101208.69;5011182;28;20281;-68
2023/06/06 04:41:16;;;;;;;6.93;4.87;;;;;;;17.17;62.60;101211.03;5009718;28;20237;-69
2023/06/06 04:43:44;;;;;;;5.37;4.17;;;;;;;17.34;63.73;101218.63;5022821;28;20587;-68
2023/06/06 04:46:11;;;;;;;8.03;5.00;;;;;;;17.28;63.04;101218.13;5012250;28;20208;-69
2023/06/06 04:48:38;;;;;;;6.47;4.47;;;;;;;17.32;63.57;101220.84;5014383;28;20230;-68
2023/06/06 04:51:05;;;;;;;5.43;4.80;;;;;;;17.36;63.43;101214.47;5013083;28;20208;-69
2023/06/06 04:53:33;;;;;;;10.60;4.90;;;;;;;17.41;63.81;101222.22;5013201;28;20285;-67
2023/06/06 04:56:03;;;;;;;5.93;4.57;;;;;;;17.46;63.76;101215.81;5015326;28;20209;-69
2023/06/06 04:58:31;;;;;;;7.17;4.57;;;;;;;17.52;63.39;101219.72;5011780;28;20646;-68
2023/06/06 05:00:57;;;;;;;7.30;5.03;;;;;;;17.57;63.52;101222.09;5012467;28;20215;-68
2023/06/06 05:03:27;;;;;;;6.23;5.07;;;;;;;17.62;63.44;101219.91;5013251;28;20228;-68
2023/06/06 05:05:54;;;;;;;8.00;5.20;;;;;;;17.67;63.40;101227.63;5013672;28;20211;-69
2023/06/06 05:08:21;;;;;;;6.13;4.53;;;;;;;17.73;63.82;101223.53;5013072;28;20227;-70
2023/06/06 05:10:47;;;;;;;5.53;4.53;;;;;;;17.78;63.04;101223.22;5012303;28;20208;-68
2023/06/06 05:13:16;;;;;;;6.50;4.83;;;;;;;17.84;62.58;101223.69;5014546;28;20719;-68
2023/06/06 05:15:43;;;;;;;7.47;4.40;;;;;;;17.90;63.55;101224.94;5013208;28;20668;-69
2023/06/06 05:18:09;;;;;;;5.10;4.40;;;;;;;17.95;63.40;101230.72;5013085;28;20393;-68
2023/06/06 05:20:37;;;;;;;6.57;4.00;;;;;;;18.00;63.00;101222.41;5014566;28;20212;-69
2023/06/06 05:23:05;;;;;;;6.77;4.53;;;;;;;18.05;63.04;101227.44;5013404;28;20235;-68
2023/06/06 05:25:31;;;;;;;4.83;4.17;;;;;;;18.10;62.93;101231.72;5014937;28;20283;-68
2023/06/06 05:27:57;;;;;;;9.13;4.30;;;;;;;18.14;62.04;101236.00;5014096;28;20220;-69
2023/06/06 05:30:23;;;;;;;5.80;4.23;;;;;;;18.20;62.73;101228.41;5013071;28;20204;-69
2023/06/06 05:32:51;;;;;;;4.73;3.63;;;;;;;18.26;62.00;101237.69;5013110;28;20734;-69
2023/06/06 05:35:17;;;;;;;6.47;4.30;;;;;;;18.31;62.56;101237.38;5012962;28;20659;-68
2023/06/06 05:37:45;;;;;;;6.53;4.03;;;;;;;18.37;63.31;101238.66;5012433;28;20204;-68
2023/06/06 05:40:12;;;;;;;6.10;4.50;;;;;;;18.40;62.26;101240.56;5012721;28;20299;-68
2023/06/06 05:42:38;;;;;;;4.93;4.03;;;;;;;18.47;62.00;101246.03;5013098;28;20687;-68
2023/06/06 05:45:06;;;;;;;6.40;4.37;;;;;;;18.50;61.91;101246.09;5012724;28;20274;-69
2023/06/06 05:47:32;;;;;;;5.83;4.10;;;;;;;18.54;62.04;101246.91;5011004;28;20208;-69
2023/06/06 05:49:59;;;;;;;4.47;3.80;;;;;;;18.57;61.19;101256.13;5012623;28;20204;-68
2023/06/06 05:52:26;;;;;;;5.37;4.27;;;;;;;18.62;60.50;101251.19;5011530;28;20235;-68
2023/06/06 05:55:01;;;;;;;4.90;3.97;;;;;;;18.64;59.64;101250.84;5012249;28;21056;-68
2023/06/06 05:57:27;;;;;;;6.27;4.00;;;;;;;18.67;60.52;101253.56;5011319;28;20424;-68
2023/06/06 05:59:54;;;;;;;4.83;4.20;;;;;;;18.70;60.97;101252.06;5010926;28;20209;-68
2023/06/06 06:02:22;;;;;;;4.33;3.70;;;;;;;18.73;60.94;101254.78;5010463;28;20331;-68
2023/06/06 06:04:53;;;;;;;6.10;4.33;;;;;;;18.76;60.44;101255.97;5011431;28;20207;-69
2023/06/06 06:07:19;;;;;;;6.50;4.43;;;;;;;18.80;60.87;101260.25;5009063;28;20213;-68
2023/06/06 06:09:46;;;;;;;6.10;4.10;;;;;;;18.83;59.36;101253.38;5011018;28;20228;-68
2023/06/06 06:12:14;;;;;;;5.10;3.73;;;;;;;18.84;58.66;101253.00;5010046;28;20221;-68
2023/06/06 06:14:40;;;;;;;5.67;3.87;;;;;;;18.83;59.01;101264.84;5010711;28;20216;-69
2023/06/06 06:17:06;;;;;;;5.47;4.13;;;;;;;18.81;58.58;101259.09;5011020;28;20196;-69
2023/06/06 06:19:33;;;;;;;6.80;3.87;;;;;;;18.80;58.68;101262.13;5012331;28;20313;-69
2023/06/06 06:21:59;;;;;;;6.70;4.50;;;;;;;18.78;59.66;101267.84;5012481;28;20213;-69
2023/06/06 06:24:25;;;;;;;5.60;4.03;;;;;;;18.78;60.69;101267.84;5026300;28;20201;-68
2023/06/06 06:26:52;;;;;;;5.13;4.30;;;;;;;18.78;59.70;101275.88;5012169;28;20279;-68
2023/06/06 06:29:19;;;;;;;6.03;4.33;;;;;;;18.78;60.64;101272.44;5013267;28;20233;-69
2023/06/06 06:31:46;;;;;;;6.00;4.60;;;;;;;18.78;58.87;101283.16;5009759;28;20192;-68
2023/06/06 06:34:12;;;;;;;6.47;4.83;;;;;;;18.77;61.17;101274.34;5011863;28;20209;-68
2023/06/06 06:36:39;;;;;;;7.33;5.10;;;;;;;18.78;61.80;101283.16;5011589;28;20204;-68
2023/06/06 06:39:05;;;;;;;6.80;5.00;;;;;;;18.76;62.49;101280.03;5012030;28;20212;-69
2023/06/06 06:41:31;;;;;;;5.50;4.90;;;;;;;18.75;61.13;101279.28;5009790;28;20196;-69
2023/06/06 06:43:58;;;;;;;6.80;5.13;;;;;;;18.74;60.80;101275.03;5010109;28;20310;-69
2023/06/06 06:46:26;;;;;;;9.93;5.33;;;;;;;18.73;61.02;101283.47;5011458;28;20794;-69
2023/06/06 06:48:52;;;;;;;7.80;4.80;;;;;;;18.70;60.48;101295.66;5010478;28;20212;-69
2023/06/06 06:51:21;;;;;;;7.63;5.53;;;;;;;18.68;61.78;101287.19;5009245;28;20287;-69
2023/06/06 06:53:49;;;;;;;6.10;5.27;;;;;;;18.68;62.49;101289.13;5008902;28;20240;-69
2023/06/06 06:56:17;;;;;;;5.57;4.67;;;;;;;18.65;63.38;101290.63;5010488;28;20566;-69
2023/06/06 06:58:44;;;;;;;6.17;5.13;;;;;;;18.64;61.92;101301.69;5009075;28;20217;-69
2023/06/06 07:01:11;;;;;;;5.90;4.83;;;;;;;18.73;63.83;101291.47;5010991;28;20200;-69
2023/06/06 07:03:44;;;;;;;8.80;5.50;;;;;;;18.73;62.27;101296.84;5010024;28;20223;-68
2023/06/06 07:06:11;;;;;;;6.17;5.40;;;;;;;18.69;61.68;101288.75;5010252;28;20211;-69
2023/06/06 07:08:39;;;;;;;8.33;5.40;;;;;;;18.66;59.89;101305.53;5010176;28;20227;-69
2023/06/06 07:11:06;;;;;;;5.83;5.10;;;;;;;18.50;60.60;101299.56;5008521;28;20664;-69
2023/06/06 07:13:32;;;;;;;7.07;5.10;;;;;;;18.56;62.38;101297.34;5009583;28;20216;-69
2023/06/06 07:15:58;;;;;;;6.53;5.30;;;;;;;18.58;62.21;101300.44;5024215;28;20213;-69
2023/06/06 07:18:25;;;;;;;6.23;4.93;;;;;;;18.42;61.32;101297.91;5010482;28;20220;-69
2023/06/06 07:20:52;;;;;;;5.57;4.97;;;;;;;18.36;62.23;101304.72;5009152;28;20200;-69
2023/06/06 07:23:19;;;;;;;6.93;5.60;;;;;;;18.40;60.95;101297.53;5010779;28;20228;-69
2023/06/06 07:25:45;;;;;;;6.00;5.40;;;;;;;18.40;62.69;101296.75;5012132;28;20212;-69
2023/06/06 07:28:13;;;;;;;6.60;5.77;;;;;;;18.41;61.93;101287.56;5010521;28;20246;-68
2023/06/06 07:30:41;;;;;;;6.53;5.57;;;;;;;18.27;62.17;101298.81;5011091;28;20291;-69
2023/06/06 07:33:07;;;;;;;6.20;5.60;;;;;;;18.25;62.70;101300.28;5011385;28;20232;-68
2023/06/06 07:35:34;;;;;;;6.20;5.43;;;;;;;18.26;65.07;101293.84;5009337;28;20220;-68
2023/06/06 07:38:02;;;;;;;6.77;5.73;;;;;;;18.27;64.25;101295.38;5012815;28;20959;-69
2023/06/06 07:40:29;;;;;;;6.57;5.87;;;;;;;18.30;65.88;101300.00;5012652;28;20222;-68
2023/06/06 07:42:57;;;;;;;8.90;5.90;;;;;;;18.31;65.74;101305.00;5010766;28;20217;-69
2023/06/06 07:45:23;;;;;;;8.70;5.73;;;;;;;18.47;63.94;101291.50;5011687;28;20270;-69
2023/06/06 07:47:50;;;;;;;6.03;5.23;;;;;;;18.30;65.08;101292.75;5013691;28;20201;-69
2023/06/06 07:50:17;;;;;;;8.10;5.77;;;;;;;18.29;65.03;101298.47;5011369;28;20232;-68
2023/06/06 07:52:46;;;;;;;6.47;5.37;;;;;;;18.27;66.71;101290.03;5012574;28;20224;-68
2023/06/06 07:55:16;;;;;;;6.23;5.10;;;;;;;18.26;66.12;101297.28;5012335;28;20225;-68
2023/06/06 07:57:45;;;;;;;7.07;5.67;;;;;;;18.27;66.79;101298.81;5009842;28;20203;-69
2023/06/06 08:00:13;;;;;;;6.80;5.70;;;;;;;18.28;67.20;101304.94;5011477;28;20207;-68
2023/06/06 08:02:40;;;;;;;8.30;5.77;;;;;;;18.29;67.00;101299.25;5009347;28;20222;-69
2023/06/06 08:05:07;;;;;;;6.70;6.00;;;;;;;18.30;67.27;101308.00;5011105;28;20211;-69
2023/06/06 08:07:34;;;;;;;6.43;5.83;;;;;;;18.30;67.36;101295.44;5011416;28;20216;-69
2023/06/06 08:10:00;;;;;;;7.47;5.80;;;;;;;18.30;67.64;101297.31;5008002;28;20659;-69
2023/06/06 08:12:30;;;;;;;7.43;5.87;;;;;;;18.31;68.08;101293.53;5011291;28;20216;-69
2023/06/06 08:14:57;;;;;;;7.73;5.63;;;;;;;18.33;68.67;101288.63;5009661;28;20203;-69
2023/06/06 08:17:23;;;;;;;5.93;5.40;;;;;;;18.34;68.53;101285.59;5008767;28;20235;-69
2023/06/06 08:19:50;;;;;;;6.20;5.57;;;;;;;18.37;68.86;101284.09;5014100;28;20698;-68
2023/06/06 08:22:16;;;;;;;8.93;5.70;;;;;;;18.39;69.05;101277.25;5013871;28;20229;-69
2023/06/06 08:24:43;;;;;;;8.33;5.80;;;;;;;18.44;69.92;101278.84;5014301;28;20205;-69
2023/06/06 08:27:10;;;;;;;7.43;5.63;;;;;;;18.46;69.62;101268.53;5015385;28;20673;-69
2023/06/06 08:29:38;;;;;;;6.20;5.60;;;;;;;18.48;69.05;101272.41;5012540;28;20225;-68
2023/06/06 08:32:06;;;;;;;7.87;5.27;;;;;;;18.49;68.65;101271.28;5013162;28;20242;-69
2023/06/06 08:34:32;;;;;;;6.10;5.50;;;;;;;18.52;68.95;101267.88;5015080;28;20200;-68
2023/06/06 08:36:59;;;;;;;8.00;6.00;;;;;;;18.54;69.66;101268.31;5014037;28;20204;-69
2023/06/06 08:39:25;;;;;;;7.77;6.50;;;;;;;18.61;69.91;101267.59;5015290;28;20296;-69
2023/06/06 08:41:53;;;;;;;6.13;5.53;;;;;;;18.70;70.83;101276.94;5012653;28;20208;-68
2023/06/06 08:44:22;;;;;;;7.33;5.93;;;;;;;18.79;69.77;101287.34;5013783;28;21023;-69
2023/06/06 08:46:51;;;;;;;6.73;5.70;;;;;;;18.89;70.10;101294.75;5012558;28;20205;-69
2023/06/06 08:49:18;;;;;;;6.47;5.80;;;;;;;18.97;69.10;101297.16;5011363;28;20244;-68
2023/06/06 08:51:45;;;;;;;8.97;5.63;;;;;;;19.09;69.63;101290.78;5012634;28;20833;-69
2023/06/06 08:54:12;;;;;;;7.30;5.83;;;;;;;19.23;69.52;101283.72;5010852;28;20216;-69
2023/06/06 08:56:40;;;;;;;6.30;5.70;;;;;;;19.38;68.92;101284.63;5010501;28;20203;-69
2023/06/06 08:59:06;;;;;;;7.70;5.60;;;;;;;19.52;68.64;101284.78;5009086;28;21158;-69
2023/06/06 09:01:34;;;;;;;6.80;5.70;;;;;;;19.66;68.81;101284.91;5008463;28;20648;-69
2023/06/06 09:04:02;;;;;;;6.73;5.50;;;;;;;19.79;69.61;101286.94;5008468;28;20675;-69
2023/06/06 09:06:29;;;;;;;5.73;5.13;;;;;;;19.90;68.01;101287.81;5008108;28;20216;-69
2023/06/06 09:08:56;;;;;;;5.87;4.93;;;;;;;20.04;66.57;101287.94;5007966;28;20220;-68
2023/06/06 09:11:23;;;;;;;6.53;5.20;;;;;;;20.19;66.11;101278.09;5005532;28;20208;-69
2023/06/06 09:13:49;;;;;;;6.80;5.20;;;;;;;20.34;67.76;101285.84;5007137;28;20258;-69
2023/06/06 09:16:15;;;;;;;6.33;5.03;;;;;;;20.50;66.56;101289.00;5007031;28;20208;-68
2023/06/06 09:18:42;;;;;;;5.53;4.80;;;;;;;20.65;65.12;101285.28;5004077;28;20201;-68
2023/06/06 09:21:10;;;;;;;5.60;5.00;;;;;;;20.81;64.62;101291.09;5006074;28;20892;-69
2023/06/06 09:23:36;;;;;;;7.20;5.43;;;;;;;20.99;64.59;101278.56;5005017;28;20690;-69
2023/06/06 09:26:03;;;;;;;5.77;5.17;;;;;;;21.12;65.12;101287.03;5004501;28;20974;-69
2023/06/06 09:28:37;;;;;;;5.37;4.60;;;;;;;21.25;62.84;101274.78;5003342;28;20208;-69
2023/06/06 09:31:23;;;;;;;8.27;4.77;;;;;;;21.39;64.21;101281.00;5002407;28;20258;-69
2023/06/06 09:33:50;;;;;;;6.83;4.40;;;;;;;21.51;63.83;101279.84;5003461;28;20235;-69
2023/06/06 09:36:21;;;;;;;5.50;4.37;;;;;;;21.61;60.95;101279.06;5003971;28;20212;-69
2023/06/06 09:38:48;;;;;;;6.07;4.70;;;;;;;21.69;59.90;101280.66;5001802;28;20325;-69
2023/06/06 09:41:15;;;;;;;5.30;4.80;;;;;;;21.79;62.18;101279.91;5000770;28;20585;-69
2023/06/06 09:43:41;;;;;;;4.73;4.30;;;;;;;21.85;62.43;101273.00;5002289;28;20439;-69
2023/06/06 09:46:07;;;;;;;5.10;4.60;;;;;;;21.89;60.74;101271.06;5001723;28;20307;-68
2023/06/06 09:48:34;;;;;;;5.97;5.03;;;;;;;21.92;60.19;101270.28;5000671;28;20219;-69
2023/06/06 09:51:00;;;;;;;5.97;5.00;;;;;;;21.95;62.94;101278.38;5002475;28;20216;-69
2023/06/06 09:53:31;;;;;;;5.27;4.70;;;;;;;21.93;61.44;101279.91;5001101;28;20719;-69
2023/06/06 09:56:03;;;;;;;6.40;4.50;;;;;;;21.93;62.86;101274.53;5000291;28;20213;-69
2023/06/06 09:58:31;;;;;;;5.50;4.90;;;;;;;21.91;61.07;101277.59;5001917;28;21709;-68
2023/06/06 10:00:59;;;;;;;7.43;5.23;;;;;;;21.90;60.20;101277.97;5002260;28;20847;-69
2023/06/06 10:03:30;;;;;;;5.80;4.60;;;;;;;21.92;59.53;101268.38;5000989;28;20342;-69
2023/06/06 10:05:56;;;;;;;5.67;4.30;;;;;;;22.00;59.46;101261.06;5000174;28;20306;-69
2023/06/06 10:08:26;;;;;;;5.37;4.17;;;;;;;22.09;58.16;101262.22;5001677;28;20200;-69
2023/06/06 10:10:55;;;;;;;4.77;4.07;;;;;;;22.21;60.73;101261.06;5000617;28;20226;-69
2023/06/06 10:13:23;;;;;;;5.57;4.97;;;;;;;22.31;60.82;101260.25;5002392;28;20230;-69
2023/06/06 10:15:50;;;;;;;6.35;4.40;;;;;;;22.35;55.59;101261.78;5001118;28;20200;-69
2023/06/06 10:18:18;;;;;;;5.40;4.82;;;;;;;22.41;58.02;101259.47;4998625;28;20255;-69
2023/06/06 10:20:45;;;;;;;4.38;3.95;;;;;;;22.42;58.67;101258.31;4998711;28;20211;-69
2023/06/06 10:23:12;;;;;;;7.60;3.90;;;;;;;22.46;58.63;101262.56;4999974;28;20228;-69
2023/06/06 10:25:38;;;;;;;5.88;3.90;;;;;;;22.47;56.15;101263.31;4999484;28;20196;-69
2023/06/06 10:28:11;;;;;;;5.13;4.20;;;;;;;22.50;56.18;101262.56;4998970;28;20217;-69
2023/06/06 10:30:50;;;;;;;5.00;4.10;;;;;;;22.48;59.24;101254.09;4997885;28;20266;-69
2023/06/06 10:33:28;;;;;;;4.95;4.30;;;;;;;22.44;58.67;101262.19;4998901;28;20304;-69
2023/06/06 10:36:00;;;;;;;5.37;4.27;;;;;;;22.33;54.76;101257.94;4998083;28;20884;-69
2023/06/06 10:38:26;;;;;;;4.83;4.40;;;;;;;22.26;58.15;101255.28;4999563;28;20602;-68
2023/06/06 10:40:55;;;;;;;5.90;4.47;;;;;;;22.20;56.46;101259.53;5000695;28;20815;-69
2023/06/06 10:43:50;;;;;;;5.30;4.67;;;;;;;22.14;59.81;101261.06;5000150;28;20568;-69
2023/06/06 10:46:17;;;;;;;10.87;4.80;;;;;;;22.05;55.02;101261.44;5003110;28;20290;-68
2023/06/06 10:48:45;;;;;;;4.93;4.03;;;;;;;21.98;59.51;101260.72;5000518;28;20214;-68
2023/06/06 10:51:30;;;;;;;6.67;4.37;;;;;;;21.79;57.41;101261.84;5001684;28;20231;-68
2023/06/06 10:54:14;;;;;;;5.87;4.60;;;;;;;21.62;58.47;101270.63;5002289;28;20232;-69
2023/06/06 10:56:44;;;;;;;5.77;4.90;;;;;;;21.26;60.45;101268.28;5002119;28;20263;-69
2023/06/06 10:59:14;;;;;;;6.00;5.23;;;;;;;21.01;62.00;101262.06;5005689;28;20212;-69
2023/06/06 11:01:41;;;;;;;5.97;5.37;;;;;;;20.79;61.04;101268.47;5018854;28;20209;-69
2023/06/06 11:04:17;;;;;;;8.20;5.70;;;;;;;20.56;62.67;101268.75;5007370;28;20207;-69
2023/06/06 11:06:44;;;;;;;6.03;5.40;;;;;;;20.37;63.45;101271.72;5006316;28;20202;-69
2023/06/06 11:09:18;;;;;;;10.43;6.00;;;;;;;20.17;64.49;101275.78;5004650;28;20636;-69
2023/06/06 11:11:45;;;;;;;7.10;5.87;;;;;;;20.01;64.60;101275.25;5007121;28;20230;-69
2023/06/06 11:14:13;;;;;;;8.77;6.17;;;;;;;19.85;65.32;101266.72;5006238;28;20217;-69
2023/06/06 11:17:00;;;;;;;8.70;6.33;;;;;;;19.69;66.05;101268.88;5008537;28;20721;-69
2023/06/06 11:19:37;;;;;;;7.60;6.90;;;;;;;19.57;66.62;101269.16;5008837;28;20210;-69
2023/06/06 11:22:04;;;;;;;7.60;6.53;;;;;;;19.47;66.83;101272.50;5010122;28;20824;-69
2023/06/06 11:24:38;;;;;;;7.23;6.47;;;;;;;19.39;67.02;101264.72;5007561;28;20214;-69
2023/06/06 11:27:06;;;;;;;7.43;6.73;;;;;;;19.32;67.58;101265.44;5009248;28;20690;-69